createdAt,value
2019-04-30T00:00:18.212Z,89.29
2019-04-30T00:02:38.373Z,89.22
2019-04-30T00:04:45.276Z,89.20
2019-04-30T00:06:56.890Z,88.98
2019-04-30T00:09:15.118Z,88.94
2019-04-30T00:11:22.641Z,89.10
2019-04-30T00:13:35.762Z,89.11
2019-04-30T00:15:47.872Z,89.10
2019-04-30T00:18:01.836Z,89.25
2019-04-30T00:20:15.119Z,89.29
2019-04-30T00:22:33.494Z,89.23
2019-04-30T00:24:44.265Z,89.13
2019-04-30T00:26:52.858Z,89.20
2019-04-30T00:29:05.132Z,89.28
2019-04-30T00:31:17.621Z,89.26
2019-04-30T00:33:28.857Z,89.27
2019-04-30T00:35:39.808Z,89.35
2019-04-30T00:37:52.059Z,89.44
2019-04-30T00:40:05.596Z,89.41
2019-04-30T00:42:23.911Z,89.39
2019-04-30T00:44:30.120Z,89.37
2019-04-30T00:46:41.127Z,89.34
2019-04-30T00:48:52.044Z,89.44
2019-04-30T00:51:07.501Z,89.62
2019-04-30T00:53:16.654Z,89.78
2019-04-30T00:55:27.648Z,89.75
2019-04-30T00:57:43.630Z,89.54
2019-04-30T00:59:51.389Z,89.59
2019-04-30T01:02:13.195Z,89.70
2019-04-30T01:04:31.693Z,89.74
2019-04-30T01:06:42.658Z,89.66
2019-04-30T01:08:53.525Z,89.89
2019-04-30T01:11:09.357Z,90.14
2019-04-30T01:13:19.375Z,90.29
2019-04-30T01:15:30.314Z,90.39
2019-04-30T01:17:45.458Z,90.51
2019-04-30T01:19:54.581Z,90.42
2019-04-30T01:22:05.725Z,90.51
2019-04-30T01:24:16.680Z,90.53
2019-04-30T01:26:31.052Z,90.62
2019-04-30T01:28:40.796Z,90.67
2019-04-30T01:30:53.838Z,90.60
2019-04-30T01:33:05.012Z,90.54
2019-04-30T01:35:15.934Z,90.41
2019-04-30T01:37:29.646Z,90.48
2019-04-30T01:39:40.217Z,90.55
2019-04-30T01:41:51.182Z,90.72
2019-04-30T01:44:03.756Z,90.67
2019-04-30T01:46:15.016Z,90.72
2019-04-30T01:48:25.940Z,90.46
2019-04-30T01:50:38.675Z,90.46
2019-04-30T01:52:52.664Z,90.79
2019-04-30T01:55:04.179Z,90.74
2019-04-30T01:57:19.231Z,90.80
2019-04-30T01:59:31.897Z,90.88
2019-04-30T02:01:48.728Z,91.01
2019-04-30T02:03:59.694Z,91.15
2019-04-30T02:06:11.550Z,91.27
2019-04-30T02:08:22.741Z,91.36
2019-04-30T02:10:33.691Z,91.41
2019-04-30T02:12:44.639Z,91.37
2019-04-30T02:14:55.700Z,91.25
2019-04-30T02:17:06.676Z,91.27
2019-04-30T02:19:18.805Z,91.27
2019-04-30T02:21:30.914Z,91.23
2019-04-30T02:23:42.645Z,91.13
2019-04-30T02:25:58.828Z,91.03
2019-04-30T02:28:09.726Z,91.05
2019-04-30T02:30:21.117Z,91.24
2019-04-30T02:32:32.046Z,91.49
2019-04-30T02:34:49.775Z,91.47
2019-04-30T02:37:09.806Z,91.42
2019-04-30T02:39:20.890Z,91.50
2019-04-30T02:41:31.947Z,91.49
2019-04-30T02:43:43.832Z,91.67
2019-04-30T02:45:55.309Z,91.62
2019-04-30T02:48:06.505Z,91.73
2019-04-30T02:50:22.295Z,91.84
2019-04-30T02:52:32.427Z,91.93
2019-04-30T02:54:45.208Z,92.04
2019-04-30T02:56:59.684Z,92.03
2019-04-30T02:59:12.733Z,92.03
2019-04-30T03:01:23.563Z,92.15
2019-04-30T03:03:34.427Z,92.13
2019-04-30T03:05:45.256Z,92.18
2019-04-30T03:07:56.106Z,92.23
2019-04-30T03:10:09.802Z,92.23
2019-04-30T03:12:20.451Z,92.31
2019-04-30T03:14:33.367Z,92.47
2019-04-30T03:16:53.287Z,92.50
2019-04-30T03:19:24.199Z,92.39
2019-04-30T03:21:42.660Z,92.31
2019-04-30T03:23:53.577Z,92.38
2019-04-30T03:26:04.428Z,92.34
2019-04-30T03:28:19.933Z,92.50
2019-04-30T03:30:31.986Z,92.51
2019-04-30T03:32:43.825Z,92.61
2019-04-30T03:34:55.797Z,92.71
2019-04-30T03:37:06.648Z,92.77
2019-04-30T03:39:19.844Z,92.74
2019-04-30T03:41:33.469Z,92.67
2019-04-30T03:43:43.262Z,92.66
2019-04-30T03:45:54.524Z,92.74
2019-04-30T03:48:05.526Z,92.90
2019-04-30T03:50:19.605Z,92.98
2019-04-30T03:52:29.379Z,92.84
2019-04-30T03:54:40.987Z,92.75
2019-04-30T03:56:53.954Z,92.78
2019-04-30T03:59:04.798Z,92.76
2019-04-30T04:01:29.900Z,92.70
2019-04-30T04:04:00.338Z,92.67
2019-04-30T04:06:16.281Z,92.66
2019-04-30T04:08:29.455Z,92.61
2019-04-30T04:10:42.473Z,92.60
2019-04-30T04:12:55.311Z,92.51
2019-04-30T04:15:06.543Z,92.42
2019-04-30T04:17:20.097Z,92.41
2019-04-30T04:19:30.382Z,92.39
2019-04-30T04:21:41.289Z,92.45
2019-04-30T04:23:52.784Z,92.47
2019-04-30T04:26:03.741Z,92.48
2019-04-30T04:28:14.714Z,92.60
2019-04-30T04:30:25.751Z,92.66
2019-04-30T04:32:36.639Z,92.67
2019-04-30T04:34:50.054Z,92.75
2019-04-30T04:37:00.258Z,92.62
2019-04-30T04:39:11.214Z,92.63
2019-04-30T04:41:22.090Z,92.76
2019-04-30T04:43:33.096Z,92.68
2019-04-30T04:45:44.039Z,92.65
2019-04-30T04:47:55.086Z,92.65
2019-04-30T04:50:07.051Z,92.68
2019-04-30T04:52:20.622Z,92.75
2019-04-30T04:54:30.761Z,92.78
2019-04-30T04:56:41.710Z,92.71
2019-04-30T04:58:52.723Z,92.61
2019-04-30T05:01:03.670Z,92.52
2019-04-30T05:03:20.194Z,92.47
2019-04-30T05:05:31.276Z,93.08
2019-04-30T05:07:42.379Z,92.68
2019-04-30T05:09:53.290Z,91.58
2019-04-30T05:12:04.229Z,91.08
2019-04-30T05:14:15.092Z,90.96
2019-04-30T05:16:26.194Z,90.99
2019-04-30T05:18:38.978Z,91.06
2019-04-30T05:20:50.013Z,91.09
2019-04-30T05:23:00.934Z,91.23
2019-04-30T05:25:11.880Z,91.21
2019-04-30T05:27:22.725Z,91.37
2019-04-30T05:29:33.612Z,91.44
2019-04-30T05:31:44.462Z,91.54
2019-04-30T05:33:55.334Z,91.70
2019-04-30T05:36:06.265Z,91.73
2019-04-30T05:38:18.836Z,91.78
2019-04-30T05:40:29.900Z,91.88
2019-04-30T05:42:40.844Z,91.80
2019-04-30T05:44:51.738Z,91.91
2019-04-30T05:47:02.820Z,91.93
2019-04-30T05:49:13.686Z,91.78
2019-04-30T05:51:24.533Z,91.80
2019-04-30T05:53:35.427Z,91.82
2019-04-30T05:55:46.259Z,91.80
2019-04-30T05:57:58.784Z,92.01
2019-04-30T06:00:10.602Z,92.01
2019-04-30T06:02:21.669Z,91.72
2019-04-30T06:04:32.523Z,91.53
2019-04-30T06:06:43.383Z,91.39
2019-04-30T06:09:14.861Z,91.18
2019-04-30T06:11:39.924Z,91.19
2019-04-30T06:13:58.921Z,91.15
2019-04-30T06:16:11.881Z,91.28
2019-04-30T06:18:23.046Z,91.19
2019-04-30T06:20:35.835Z,91.17
2019-04-30T06:22:46.987Z,91.11
2019-04-30T06:24:59.460Z,90.89
2019-04-30T06:27:11.006Z,90.96
2019-04-30T06:29:22.378Z,90.95
2019-04-30T06:31:37.370Z,90.92
2019-04-30T06:33:46.599Z,91.00
2019-04-30T06:35:58.998Z,90.99
2019-04-30T06:38:10.086Z,91.10
2019-04-30T06:40:21.040Z,91.00
2019-04-30T06:42:33.811Z,90.65
2019-04-30T06:44:44.955Z,90.66
2019-04-30T06:46:55.945Z,90.90
2019-04-30T06:49:06.889Z,90.59
2019-04-30T06:51:18.886Z,90.50
2019-04-30T06:53:29.934Z,90.45
2019-04-30T06:55:41.026Z,90.38
2019-04-30T06:57:51.857Z,90.14
2019-04-30T07:00:06.525Z,89.93
2019-04-30T07:02:19.521Z,88.99
2019-04-30T07:04:30.259Z,88.54
2019-04-30T07:06:44.116Z,87.84
2019-04-30T07:09:13.801Z,87.80
2019-04-30T07:11:29.744Z,87.41
2019-04-30T07:13:41.400Z,87.37
2019-04-30T07:15:52.272Z,87.33
2019-04-30T07:18:03.337Z,86.77
2019-04-30T07:20:14.210Z,86.90
2019-04-30T07:22:37.714Z,86.92
2019-04-30T07:24:39.427Z,86.84
2019-04-30T07:26:54.754Z,86.72
2019-04-30T07:29:03.177Z,86.98
2019-04-30T07:31:14.905Z,87.33
2019-04-30T07:33:26.030Z,87.51
2019-04-30T07:35:36.982Z,87.08
2019-04-30T07:37:49.750Z,87.32
2019-04-30T07:40:00.798Z,87.31
2019-04-30T07:42:11.653Z,87.49
2019-04-30T07:44:35.470Z,87.81
2019-04-30T07:46:41.165Z,87.95
2019-04-30T07:48:50.096Z,87.70
2019-04-30T07:51:00.958Z,87.57
2019-04-30T07:53:12.714Z,87.41
2019-04-30T07:55:23.887Z,86.60
2019-04-30T07:57:34.721Z,86.38
2019-04-30T07:59:45.591Z,86.58
2019-04-30T08:02:04.053Z,86.93
2019-04-30T08:04:18.846Z,86.60
2019-04-30T08:06:31.000Z,88.18
2019-04-30T08:08:42.566Z,86.34
2019-04-30T08:10:53.529Z,85.58
2019-04-30T08:13:10.231Z,85.15
2019-04-30T08:15:17.146Z,85.19
2019-04-30T08:17:28.948Z,84.89
2019-04-30T08:19:41.209Z,85.34
2019-04-30T08:21:52.104Z,85.53
2019-04-30T08:24:03.076Z,85.80
2019-04-30T08:26:13.911Z,85.96
2019-04-30T08:28:24.816Z,86.15
2019-04-30T08:30:35.896Z,86.26
2019-04-30T08:32:46.759Z,86.20
2019-04-30T08:35:01.004Z,86.01
2019-04-30T08:37:17.087Z,86.06
2019-04-30T08:39:23.321Z,86.01
2019-04-30T08:41:34.174Z,85.16
2019-04-30T08:43:45.044Z,84.44
2019-04-30T08:45:55.894Z,83.86
2019-04-30T08:48:08.978Z,84.05
2019-04-30T08:50:20.650Z,84.12
2019-04-30T08:52:32.150Z,83.42
2019-04-30T08:54:45.031Z,82.87
2019-04-30T08:56:55.870Z,82.96
2019-04-30T08:59:10.873Z,83.39
2019-04-30T09:01:19.862Z,84.07
2019-04-30T09:03:30.787Z,83.69
2019-04-30T09:05:43.759Z,83.20
2019-04-30T09:07:54.630Z,83.28
2019-04-30T09:10:09.185Z,83.12
2019-04-30T09:12:20.237Z,83.35
2019-04-30T09:14:31.212Z,83.69
2019-04-30T09:16:42.120Z,83.94
2019-04-30T09:18:53.103Z,84.76
2019-04-30T09:21:06.371Z,84.74
2019-04-30T09:23:18.601Z,83.97
2019-04-30T09:25:29.482Z,83.10
2019-04-30T09:27:40.347Z,83.14
2019-04-30T09:29:51.323Z,83.66
2019-04-30T09:32:02.270Z,83.98
2019-04-30T09:34:17.095Z,83.81
2019-04-30T09:36:25.962Z,83.67
2019-04-30T09:38:38.817Z,84.00
2019-04-30T09:40:50.765Z,84.27
2019-04-30T09:43:01.934Z,84.21
2019-04-30T09:45:12.923Z,84.01
2019-04-30T09:47:23.773Z,83.10
2019-04-30T09:49:34.620Z,83.67
2019-04-30T09:51:45.511Z,83.01
2019-04-30T09:53:59.655Z,83.06
2019-04-30T09:56:09.652Z,83.62
2019-04-30T09:58:21.255Z,82.95
2019-04-30T10:00:32.520Z,82.81
2019-04-30T10:02:43.440Z,82.48
2019-04-30T10:04:54.706Z,82.53
2019-04-30T10:07:05.869Z,81.54
2019-04-30T10:09:19.332Z,81.43
2019-04-30T10:11:41.143Z,81.44
2019-04-30T10:13:52.211Z,79.29
2019-04-30T10:16:09.724Z,78.48
2019-04-30T10:18:20.623Z,78.50
2019-04-30T10:20:40.229Z,78.58
2019-04-30T10:22:51.076Z,77.13
2019-04-30T10:25:06.744Z,78.00
2019-04-30T10:27:19.093Z,77.73
2019-04-30T10:29:30.325Z,77.57
2019-04-30T10:31:41.302Z,78.05
2019-04-30T10:33:52.165Z,78.56
2019-04-30T10:36:03.186Z,78.25
2019-04-30T10:38:14.061Z,78.53
2019-04-30T10:40:25.047Z,78.75
2019-04-30T10:42:36.001Z,78.90
2019-04-30T10:44:47.128Z,78.80
2019-04-30T10:46:59.368Z,78.58
2019-04-30T10:49:10.650Z,78.51
2019-04-30T10:51:21.600Z,78.09
2019-04-30T10:53:32.468Z,76.55
2019-04-30T10:55:43.419Z,75.24
2019-04-30T10:57:54.276Z,76.30
2019-04-30T11:00:10.121Z,74.83
2019-04-30T11:02:21.227Z,73.25
2019-04-30T11:04:32.177Z,69.21
2019-04-30T11:06:43.135Z,69.93
2019-04-30T11:08:54.510Z,68.59
2019-04-30T11:11:05.563Z,71.21
2019-04-30T11:13:16.426Z,68.08
2019-04-30T11:15:29.209Z,64.87
2019-04-30T11:17:40.564Z,61.51
2019-04-30T11:19:51.777Z,60.17
2019-04-30T11:22:04.224Z,64.81
2019-04-30T11:24:15.629Z,62.78
2019-04-30T11:26:30.804Z,64.50
2019-04-30T11:28:39.816Z,67.40
2019-04-30T11:30:53.198Z,63.19
2019-04-30T11:33:04.497Z,62.83
2019-04-30T11:35:15.683Z,64.82
2019-04-30T11:37:26.664Z,61.03
2019-04-30T11:39:37.725Z,62.60
2019-04-30T11:41:48.822Z,63.57
2019-04-30T11:43:59.769Z,61.50
2019-04-30T11:46:28.574Z,62.56
2019-04-30T11:48:39.480Z,64.23
2019-04-30T11:50:50.420Z,64.50
2019-04-30T11:53:19.640Z,65.13
2019-04-30T11:55:14.270Z,65.51
2019-04-30T11:57:25.116Z,66.63
2019-04-30T11:59:36.103Z,67.40
2019-04-30T12:01:48.464Z,65.63
2019-04-30T12:03:59.880Z,63.21
2019-04-30T12:06:11.228Z,60.11
2019-04-30T12:08:27.050Z,58.65
2019-04-30T12:10:39.885Z,54.62
2019-04-30T12:12:50.747Z,53.88
2019-04-30T12:15:02.894Z,57.02
2019-04-30T12:17:13.968Z,56.58
2019-04-30T12:19:24.826Z,51.29
2019-04-30T12:21:35.785Z,54.45
2019-04-30T12:23:46.631Z,54.84
2019-04-30T12:26:01.010Z,51.69
2019-04-30T12:28:10.339Z,51.14
2019-04-30T12:30:21.610Z,48.00
2019-04-30T12:32:35.178Z,47.63
2019-04-30T12:34:45.222Z,46.75
2019-04-30T12:36:56.206Z,46.79
2019-04-30T12:39:07.249Z,46.79
2019-04-30T12:41:18.247Z,47.12
2019-04-30T12:43:29.660Z,45.06
2019-04-30T12:45:40.512Z,45.92
2019-04-30T12:47:59.453Z,45.28
2019-04-30T12:50:15.462Z,47.22
2019-04-30T12:52:29.615Z,47.58
2019-04-30T12:54:42.411Z,48.33
2019-04-30T12:57:01.230Z,47.45
2019-04-30T12:59:12.094Z,46.06
2019-04-30T13:01:23.079Z,46.50
2019-04-30T13:03:33.932Z,46.02
2019-04-30T13:05:45.190Z,46.71
2019-04-30T13:07:57.472Z,48.17
2019-04-30T13:10:10.143Z,44.95
2019-04-30T13:12:21.944Z,46.53
2019-04-30T13:14:36.855Z,46.37
2019-04-30T13:16:46.392Z,48.48
2019-04-30T13:18:59.287Z,49.47
2019-04-30T13:21:10.226Z,51.06
2019-04-30T13:23:21.106Z,48.09
2019-04-30T13:25:35.468Z,48.15
2019-04-30T13:27:46.664Z,50.04
2019-04-30T13:30:05.470Z,49.50
2019-04-30T13:32:29.565Z,50.73
2019-04-30T13:34:44.954Z,48.63
2019-04-30T13:36:55.810Z,49.31
2019-04-30T13:39:11.305Z,49.35
2019-04-30T13:41:44.531Z,47.98
2019-04-30T13:43:58.735Z,47.06
2019-04-30T13:46:09.722Z,48.29
2019-04-30T13:48:20.622Z,49.63
2019-04-30T13:50:31.530Z,46.83
2019-04-30T13:52:42.523Z,47.49
2019-04-30T13:54:55.249Z,47.80
2019-04-30T13:57:06.106Z,46.86
2019-04-30T13:59:17.005Z,48.16
2019-04-30T14:01:29.386Z,49.02
2019-04-30T14:03:51.566Z,47.75
2019-04-30T14:06:03.500Z,45.90
2019-04-30T14:08:20.015Z,48.73
2019-04-30T14:10:32.911Z,48.20
2019-04-30T14:12:45.770Z,48.15
2019-04-30T14:14:56.647Z,47.79
2019-04-30T14:17:09.200Z,47.89
2019-04-30T14:19:20.381Z,50.11
2019-04-30T14:21:35.271Z,50.38
2019-04-30T14:23:44.300Z,48.75
2019-04-30T14:25:56.548Z,45.75
2019-04-30T14:28:09.442Z,47.86
2019-04-30T14:30:20.916Z,49.25
2019-04-30T14:32:31.779Z,47.09
2019-04-30T14:34:42.739Z,48.92
2019-04-30T14:36:53.673Z,46.38
2019-04-30T14:39:14.419Z,45.43
2019-04-30T14:41:19.767Z,46.47
2019-04-30T14:43:45.360Z,46.80
2019-04-30T14:46:05.007Z,44.84
2019-04-30T14:48:20.845Z,47.28
2019-04-30T14:50:32.562Z,48.44
2019-04-30T14:52:48.321Z,47.78
2019-04-30T14:55:04.105Z,47.54
2019-04-30T14:57:33.425Z,47.43
2019-04-30T15:00:03.344Z,47.49
2019-04-30T15:02:29.619Z,48.53
2019-04-30T15:04:40.681Z,47.23
2019-04-30T15:06:51.539Z,48.32
2019-04-30T15:09:05.362Z,48.94
2019-04-30T15:11:16.337Z,48.61
2019-04-30T15:13:29.407Z,48.70
2019-04-30T15:15:40.153Z,49.70
2019-04-30T15:17:52.968Z,48.33
2019-04-30T15:20:04.811Z,48.59
2019-04-30T15:22:15.837Z,48.01
2019-04-30T15:24:29.358Z,47.83
2019-04-30T15:26:41.313Z,47.55
2019-04-30T15:28:52.241Z,48.07
2019-04-30T15:31:03.356Z,48.23
2019-04-30T15:33:19.096Z,47.34
2019-04-30T15:35:30.073Z,47.85
2019-04-30T15:37:42.970Z,47.39
2019-04-30T15:39:53.809Z,46.13
2019-04-30T15:42:04.898Z,47.36
2019-04-30T15:44:15.993Z,48.32
2019-04-30T15:46:27.059Z,46.68
2019-04-30T15:48:37.901Z,46.30
2019-04-30T15:50:49.341Z,46.68
2019-04-30T15:53:02.229Z,46.99
2019-04-30T15:55:13.216Z,46.95
2019-04-30T15:57:24.230Z,46.30
2019-04-30T15:59:39.771Z,47.08
2019-04-30T16:01:52.546Z,46.15
2019-04-30T16:04:03.819Z,46.65
2019-04-30T16:06:14.714Z,47.03
2019-04-30T16:08:29.086Z,46.46
2019-04-30T16:10:50.992Z,47.41
2019-04-30T16:13:19.531Z,48.42
2019-04-30T16:15:30.800Z,48.59
2019-04-30T16:17:43.592Z,48.20
2019-04-30T16:19:54.452Z,48.25
2019-04-30T16:22:05.562Z,46.54
2019-04-30T16:24:18.644Z,48.24
2019-04-30T16:26:29.392Z,48.04
2019-04-30T16:28:40.275Z,48.88
2019-04-30T16:30:51.318Z,47.55
2019-04-30T16:33:02.411Z,48.03
2019-04-30T16:35:13.339Z,48.63
2019-04-30T16:37:24.268Z,48.93
2019-04-30T16:39:35.185Z,47.97
2019-04-30T16:41:46.146Z,48.96
2019-04-30T16:43:57.021Z,48.41
2019-04-30T16:46:07.998Z,48.07
2019-04-30T16:48:19.437Z,47.89
2019-04-30T16:50:30.635Z,48.27
2019-04-30T16:52:41.497Z,48.78
2019-04-30T16:54:56.330Z,48.83
2019-04-30T16:57:07.298Z,47.34
2019-04-30T16:59:20.063Z,47.00
2019-04-30T17:01:32.348Z,50.99
2019-04-30T17:03:45.238Z,49.43
2019-04-30T17:05:59.639Z,49.29
2019-04-30T17:08:21.548Z,47.64
2019-04-30T17:10:50.931Z,47.60
2019-04-30T17:13:03.691Z,47.58
2019-04-30T17:15:22.430Z,48.41
2019-04-30T17:17:33.262Z,49.08
2019-04-30T17:19:44.299Z,48.98
2019-04-30T17:21:55.312Z,49.18
2019-04-30T17:24:06.293Z,49.67
2019-04-30T17:26:17.187Z,49.45
2019-04-30T17:28:28.569Z,49.65
2019-04-30T17:30:39.532Z,48.18
2019-04-30T17:32:50.478Z,47.51
2019-04-30T17:35:01.536Z,49.20
2019-04-30T17:37:12.494Z,48.90
2019-04-30T17:39:23.839Z,49.17
2019-04-30T17:41:34.823Z,49.72
2019-04-30T17:43:45.704Z,49.52
2019-04-30T17:45:56.701Z,49.27
2019-04-30T17:48:07.664Z,49.55
2019-04-30T17:50:18.882Z,49.53
2019-04-30T17:52:29.911Z,49.73
2019-04-30T17:54:41.112Z,50.40
2019-04-30T17:56:51.962Z,50.75
2019-04-30T17:59:03.014Z,50.96
2019-04-30T18:01:14.204Z,50.71
2019-04-30T18:03:25.417Z,50.70
2019-04-30T18:05:36.518Z,50.82
2019-04-30T18:07:49.629Z,50.91
2019-04-30T18:10:00.312Z,51.01
2019-04-30T18:12:11.205Z,53.41
2019-04-30T18:14:22.092Z,56.88
2019-04-30T18:16:35.062Z,57.72
2019-04-30T18:18:51.204Z,58.52
2019-04-30T18:21:16.174Z,59.07
2019-04-30T18:23:31.783Z,59.46
2019-04-30T18:25:44.631Z,59.65
2019-04-30T18:28:00.545Z,59.92
2019-04-30T18:30:13.492Z,60.72
2019-04-30T18:32:26.014Z,60.69
2019-04-30T18:34:38.714Z,61.18
2019-04-30T18:36:51.194Z,61.51
2019-04-30T18:39:05.090Z,61.89
2019-04-30T18:41:19.359Z,62.36
2019-04-30T18:43:30.330Z,63.08
2019-04-30T18:45:41.401Z,62.70
2019-04-30T18:47:52.473Z,63.83
2019-04-30T18:50:04.935Z,63.84
2019-04-30T18:52:15.755Z,63.88
2019-04-30T18:54:28.604Z,64.05
2019-04-30T18:56:39.433Z,64.04
2019-04-30T18:58:50.703Z,64.21
2019-04-30T19:01:01.756Z,64.70
2019-04-30T19:03:12.798Z,66.32
2019-04-30T19:05:25.928Z,64.57
2019-04-30T19:07:38.884Z,64.29
2019-04-30T19:09:54.629Z,64.23
2019-04-30T19:12:23.934Z,64.67
2019-04-30T19:14:45.645Z,64.89
2019-04-30T19:17:04.224Z,65.14
2019-04-30T19:19:17.029Z,65.42
2019-04-30T19:21:28.220Z,66.20
2019-04-30T19:23:39.207Z,66.48
2019-04-30T19:25:50.170Z,67.18
2019-04-30T19:28:11.321Z,67.59
2019-04-30T19:30:14.392Z,67.57
2019-04-30T19:32:25.255Z,67.13
2019-04-30T19:34:36.309Z,67.54
2019-04-30T19:36:49.131Z,68.12
2019-04-30T19:39:00.144Z,68.73
2019-04-30T19:41:11.212Z,69.09
2019-04-30T19:43:22.487Z,69.83
2019-04-30T19:45:34.794Z,70.43
2019-04-30T19:47:45.951Z,71.05
2019-04-30T19:49:57.214Z,71.17
2019-04-30T19:52:11.829Z,71.44
2019-04-30T19:54:23.300Z,71.92
2019-04-30T19:56:34.455Z,72.28
2019-04-30T19:58:57.205Z,72.54
2019-04-30T20:00:59.518Z,72.40
2019-04-30T20:03:11.807Z,72.08
2019-04-30T20:05:22.793Z,72.14
2019-04-30T20:07:33.735Z,72.10
2019-04-30T20:09:57.264Z,72.12
2019-04-30T20:11:59.609Z,71.95
2019-04-30T20:14:10.467Z,72.35
2019-04-30T20:16:21.753Z,72.10
2019-04-30T20:18:32.686Z,72.63
2019-04-30T20:20:45.577Z,72.71
2019-04-30T20:22:56.480Z,72.42
2019-04-30T20:25:09.153Z,72.44
2019-04-30T20:27:20.261Z,72.34
2019-04-30T20:29:31.129Z,72.52
2019-04-30T20:31:42.015Z,72.38
2019-04-30T20:33:53.770Z,72.76
2019-04-30T20:36:04.948Z,72.88
2019-04-30T20:38:19.449Z,72.77
2019-04-30T20:40:43.055Z,72.45
2019-04-30T20:42:45.106Z,72.73
2019-04-30T20:44:56.103Z,72.85
2019-04-30T20:47:08.838Z,73.27
2019-04-30T20:49:20.053Z,73.09
2019-04-30T20:51:31.044Z,73.11
2019-04-30T20:53:41.925Z,73.40
2019-04-30T20:55:52.795Z,73.12
2019-04-30T20:58:03.876Z,73.36
2019-04-30T21:00:14.853Z,73.20
2019-04-30T21:02:25.741Z,73.39
2019-04-30T21:04:36.585Z,73.98
2019-04-30T21:06:49.516Z,74.25
2019-04-30T21:09:00.468Z,74.25
2019-04-30T21:11:11.426Z,74.51
2019-04-30T21:13:22.406Z,74.53
2019-04-30T21:15:33.381Z,74.64
2019-04-30T21:17:44.359Z,74.85
2019-04-30T21:20:01.048Z,75.19
2019-04-30T21:22:12.079Z,75.33
2019-04-30T21:24:22.954Z,75.45
2019-04-30T21:26:33.934Z,75.58
2019-04-30T21:28:44.939Z,75.62
2019-04-30T21:30:55.791Z,75.28
2019-04-30T21:33:14.808Z,75.18
2019-04-30T21:35:27.786Z,75.08
2019-04-30T21:37:38.668Z,75.18
2019-04-30T21:39:50.155Z,75.08
2019-04-30T21:42:01.311Z,75.23
2019-04-30T21:44:12.682Z,75.17
2019-04-30T21:46:23.541Z,75.04
2019-04-30T21:48:35.351Z,74.94
2019-04-30T21:50:46.214Z,74.88
2019-04-30T21:52:57.064Z,74.87
2019-04-30T21:55:09.701Z,74.85
2019-04-30T21:57:20.824Z,74.78
2019-04-30T21:59:31.893Z,74.73
2019-04-30T22:01:44.966Z,74.93
2019-04-30T22:03:55.841Z,75.35
2019-04-30T22:06:08.495Z,75.16
2019-04-30T22:08:19.776Z,74.96
2019-04-30T22:10:30.737Z,75.03
2019-04-30T22:12:41.594Z,75.03
2019-04-30T22:14:54.492Z,75.02
2019-04-30T22:17:05.557Z,75.39
2019-04-30T22:19:16.538Z,75.67
2019-04-30T22:21:28.336Z,76.08
2019-04-30T22:23:40.332Z,76.64
2019-04-30T22:25:53.222Z,76.53
2019-04-30T22:28:04.258Z,76.22
2019-04-30T22:30:15.669Z,76.45
2019-04-30T22:32:26.563Z,76.43
2019-04-30T22:34:37.545Z,76.48
2019-04-30T22:36:48.995Z,76.66
2019-04-30T22:39:19.934Z,77.07
2019-04-30T22:41:32.951Z,76.98
2019-04-30T22:43:43.812Z,77.01
2019-04-30T22:45:59.656Z,77.22
2019-04-30T22:48:10.638Z,77.34
2019-04-30T22:50:22.735Z,77.34
2019-04-30T22:52:33.595Z,77.31
2019-04-30T22:54:44.522Z,77.37
2019-04-30T22:56:55.348Z,77.42
2019-04-30T22:59:06.401Z,77.39
2019-04-30T23:01:35.798Z,77.84
2019-04-30T23:03:47.081Z,78.04
2019-04-30T23:05:58.056Z,78.47
2019-04-30T23:08:09.021Z,78.99
2019-04-30T23:10:20.023Z,79.46
2019-04-30T23:12:31.189Z,79.83
2019-04-30T23:14:42.125Z,80.16
2019-04-30T23:16:55.814Z,80.41
2019-04-30T23:19:06.674Z,80.47
2019-04-30T23:21:17.707Z,80.34
2019-04-30T23:23:28.638Z,80.14
2019-04-30T23:25:39.539Z,80.06
2019-04-30T23:27:50.409Z,79.92
2019-04-30T23:30:03.614Z,80.03
2019-04-30T23:32:14.115Z,80.14
2019-04-30T23:34:25.057Z,79.90
2019-04-30T23:36:35.919Z,80.05
2019-04-30T23:38:46.844Z,80.25
2019-04-30T23:40:57.678Z,79.97
2019-04-30T23:43:08.546Z,79.75
2019-04-30T23:45:19.621Z,79.65
2019-04-30T23:47:30.468Z,79.67
2019-04-30T23:49:41.298Z,79.68
2019-04-30T23:51:52.221Z,79.69
2019-04-30T23:54:03.343Z,80.04
2019-04-30T23:56:14.201Z,80.42
2019-04-30T23:58:25.047Z,80.74
